createdAt,value
2018-03-06T00:00:41.486Z,23.40
2018-03-06T00:01:41.511Z,24.00
2018-03-06T00:02:41.528Z,24.80
2018-03-06T00:03:41.538Z,24.80
2018-03-06T00:04:41.561Z,25.00
2018-03-06T00:05:41.582Z,23.30
2018-03-06T00:06:41.598Z,24.50
2018-03-06T00:07:41.615Z,24.30
2018-03-06T00:08:41.634Z,24.80
2018-03-06T00:09:41.910Z,25.40
2018-03-06T00:10:41.667Z,24.70
2018-03-06T00:11:41.687Z,25.70
2018-03-06T00:12:41.707Z,24.10
2018-03-06T00:13:41.732Z,24.70
2018-03-06T00:14:41.746Z,25.40
2018-03-06T00:15:41.766Z,23.30
2018-03-06T00:16:41.782Z,24.10
2018-03-06T00:17:41.806Z,22.50
2018-03-06T00:18:41.828Z,24.60
2018-03-06T00:19:41.838Z,25.10
2018-03-06T00:20:41.859Z,23.10
2018-03-06T00:21:41.878Z,23.80
2018-03-06T00:22:41.899Z,25.20
2018-03-06T00:23:41.960Z,24.80
2018-03-06T00:24:41.938Z,23.90
2018-03-06T00:25:41.948Z,24.10
2018-03-06T00:26:41.971Z,24.00
2018-03-06T00:27:41.987Z,23.80
2018-03-06T00:28:42.008Z,24.50
2018-03-06T00:29:42.033Z,24.90
2018-03-06T00:30:42.043Z,24.60
2018-03-06T00:31:42.057Z,24.50
2018-03-06T00:32:42.083Z,24.00
2018-03-06T00:33:42.101Z,24.70
2018-03-06T00:34:42.115Z,23.00
2018-03-06T00:35:42.131Z,24.80
2018-03-06T00:36:42.157Z,24.20
2018-03-06T00:37:42.169Z,25.30
2018-03-06T00:38:42.192Z,23.20
2018-03-06T00:39:42.207Z,24.80
2018-03-06T00:40:42.229Z,24.70
2018-03-06T00:41:42.246Z,24.20
2018-03-06T00:42:42.264Z,24.40
2018-03-06T00:43:42.286Z,24.20
2018-03-06T00:44:42.298Z,24.10
2018-03-06T00:45:42.322Z,24.80
2018-03-06T00:46:42.590Z,25.80
2018-03-06T00:47:42.361Z,25.80
2018-03-06T00:48:42.381Z,25.20
2018-03-06T00:49:42.399Z,24.60
2018-03-06T00:50:42.416Z,24.60
2018-03-06T00:51:42.425Z,26.40
2018-03-06T00:52:42.447Z,24.40
2018-03-06T00:53:42.468Z,24.40
2018-03-06T00:54:42.489Z,24.90
2018-03-06T00:55:42.513Z,26.40
2018-03-06T00:56:42.523Z,25.70
2018-03-06T00:57:42.539Z,24.60
2018-03-06T00:58:42.559Z,25.10
2018-03-06T00:59:42.575Z,27.00
2018-03-06T01:00:42.600Z,25.00
2018-03-06T01:01:42.612Z,25.80
2018-03-06T01:02:42.625Z,26.90
2018-03-06T01:03:42.646Z,26.70
2018-03-06T01:04:42.666Z,26.40
2018-03-06T01:05:42.687Z,26.30
2018-03-06T01:06:42.700Z,26.70
2018-03-06T01:07:42.718Z,27.50
2018-03-06T01:08:42.744Z,27.20
2018-03-06T01:09:42.756Z,25.90
2018-03-06T01:10:42.775Z,25.90
2018-03-06T01:11:42.795Z,26.00
2018-03-06T01:12:42.811Z,26.70
2018-03-06T01:13:42.829Z,27.50
2018-03-06T01:14:42.852Z,26.90
2018-03-06T01:15:42.864Z,26.90
2018-03-06T01:16:42.884Z,24.80
2018-03-06T01:17:42.899Z,25.50
2018-03-06T01:18:42.923Z,25.60
2018-03-06T01:19:42.934Z,25.30
2018-03-06T01:20:42.962Z,23.50
2018-03-06T01:21:42.975Z,27.00
2018-03-06T01:22:42.994Z,25.00
2018-03-06T01:23:43.263Z,26.50
2018-03-06T01:24:43.030Z,26.30
2018-03-06T01:25:43.045Z,27.00
2018-03-06T01:26:43.067Z,27.30
2018-03-06T01:27:43.089Z,26.80
2018-03-06T01:28:43.104Z,27.20
2018-03-06T01:29:43.120Z,24.70
2018-03-06T01:30:43.139Z,26.80
2018-03-06T01:31:43.152Z,25.50
2018-03-06T01:32:43.175Z,27.70
2018-03-06T01:33:43.195Z,26.20
2018-03-06T01:34:43.209Z,24.50
2018-03-06T01:35:43.225Z,27.50
2018-03-06T01:36:43.246Z,24.40
2018-03-06T01:37:43.264Z,26.20
2018-03-06T01:38:43.278Z,25.90
2018-03-06T01:39:43.298Z,26.60
2018-03-06T01:40:43.318Z,27.00
2018-03-06T01:41:43.586Z,25.00
2018-03-06T01:42:43.351Z,26.50
2018-03-06T01:43:43.368Z,25.10
2018-03-06T01:44:43.389Z,25.70
2018-03-06T01:45:43.404Z,25.30
2018-03-06T01:46:43.423Z,25.70
2018-03-06T01:47:43.443Z,25.20
2018-03-06T01:48:43.463Z,24.70
2018-03-06T01:49:43.483Z,24.90
2018-03-06T01:50:43.503Z,26.30
2018-03-06T01:51:43.513Z,27.80
2018-03-06T01:52:43.531Z,27.70
2018-03-06T01:53:43.547Z,27.90
2018-03-06T01:54:43.566Z,27.30
2018-03-06T01:55:43.583Z,28.50
2018-03-06T01:56:43.602Z,27.70
2018-03-06T01:57:43.875Z,25.30
2018-03-06T01:58:43.637Z,23.80
2018-03-06T01:59:43.653Z,25.30
2018-03-06T02:00:43.673Z,27.80
2018-03-06T02:01:43.692Z,27.80
2018-03-06T02:02:43.715Z,28.70
2018-03-06T02:03:43.728Z,28.60
2018-03-06T02:04:43.746Z,28.70
2018-03-06T02:05:43.768Z,25.70
2018-03-06T02:06:43.786Z,25.90
2018-03-06T02:07:43.799Z,30.20
2018-03-06T02:08:43.817Z,27.80
2018-03-06T02:09:43.837Z,30.40
2018-03-06T02:10:43.856Z,29.00
2018-03-06T02:11:43.870Z,28.80
2018-03-06T02:12:43.888Z,30.30
2018-03-06T02:13:43.906Z,31.60
2018-03-06T02:14:44.064Z,29.10
2018-03-06T02:15:43.937Z,30.50
2018-03-06T02:16:43.956Z,31.40
2018-03-06T02:17:43.979Z,31.90
2018-03-06T02:18:43.991Z,33.10
2018-03-06T02:19:44.014Z,32.00
2018-03-06T02:20:44.036Z,32.60
2018-03-06T02:21:44.055Z,32.30
2018-03-06T02:22:44.070Z,31.80
2018-03-06T02:23:44.080Z,30.60
2018-03-06T02:24:44.101Z,33.00
2018-03-06T02:25:44.118Z,32.60
2018-03-06T02:26:44.135Z,32.10
2018-03-06T02:27:44.153Z,29.70
2018-03-06T02:28:44.171Z,30.50
2018-03-06T02:29:44.188Z,30.70
2018-03-06T02:30:44.208Z,29.10
2018-03-06T02:31:44.224Z,31.00
2018-03-06T02:32:44.243Z,28.50
2018-03-06T02:33:44.263Z,30.00
2018-03-06T02:34:44.279Z,32.50
2018-03-06T02:35:44.291Z,32.80
2018-03-06T02:36:44.311Z,28.30
2018-03-06T02:37:44.330Z,29.00
2018-03-06T02:38:44.348Z,29.80
2018-03-06T02:39:44.366Z,30.00
2018-03-06T02:40:44.381Z,30.30
2018-03-06T02:41:44.401Z,32.20
2018-03-06T02:42:44.415Z,32.70
2018-03-06T02:43:44.435Z,30.00
2018-03-06T02:44:44.451Z,29.20
2018-03-06T02:45:44.473Z,30.40
2018-03-06T02:46:44.489Z,32.10
2018-03-06T02:47:44.506Z,32.20
2018-03-06T02:48:44.521Z,33.40
2018-03-06T02:49:44.539Z,32.10
2018-03-06T02:50:44.557Z,33.20
2018-03-06T02:51:44.579Z,32.80
2018-03-06T02:52:44.594Z,30.60
2018-03-06T02:53:44.609Z,30.10
2018-03-06T02:54:44.624Z,30.40
2018-03-06T02:55:44.644Z,32.20
2018-03-06T02:56:44.660Z,29.40
2018-03-06T02:57:44.684Z,32.90
2018-03-06T02:58:44.694Z,34.00
2018-03-06T02:59:44.717Z,33.90
2018-03-06T03:00:44.729Z,29.80
2018-03-06T03:01:44.755Z,29.60
2018-03-06T03:02:44.769Z,28.90
2018-03-06T03:03:44.787Z,29.10
2018-03-06T03:04:44.799Z,31.80
2018-03-06T03:05:44.921Z,32.50
2018-03-06T03:06:44.837Z,32.60
2018-03-06T03:07:44.854Z,33.10
2018-03-06T03:08:44.871Z,31.80
2018-03-06T03:09:44.888Z,29.40
2018-03-06T03:10:44.904Z,29.50
2018-03-06T03:11:44.924Z,32.60
2018-03-06T03:12:44.939Z,29.80
2018-03-06T03:13:44.959Z,31.50
2018-03-06T03:14:44.974Z,33.30
2018-03-06T03:15:44.993Z,35.20
2018-03-06T03:16:45.008Z,34.90
2018-03-06T03:17:45.282Z,31.30
2018-03-06T03:18:45.048Z,33.10
2018-03-06T03:19:45.062Z,30.30
2018-03-06T03:20:45.080Z,29.60
2018-03-06T03:21:45.098Z,30.50
2018-03-06T03:22:45.122Z,33.80
2018-03-06T03:23:45.437Z,35.10
2018-03-06T03:24:45.155Z,34.30
2018-03-06T03:25:45.167Z,32.10
2018-03-06T03:26:45.183Z,33.70
2018-03-06T03:27:45.198Z,36.20
2018-03-06T03:28:45.224Z,34.80
2018-03-06T03:29:45.232Z,37.40
2018-03-06T03:30:45.255Z,35.70
2018-03-06T03:31:45.268Z,34.50
2018-03-06T03:32:45.287Z,35.00
2018-03-06T03:33:45.302Z,37.00
2018-03-06T03:34:45.317Z,37.90
2018-03-06T03:35:45.337Z,35.50
2018-03-06T03:36:45.356Z,38.40
2018-03-06T03:37:45.374Z,35.10
2018-03-06T03:38:45.386Z,36.60
2018-03-06T03:39:45.408Z,38.00
2018-03-06T03:40:45.429Z,39.20
2018-03-06T03:41:45.442Z,38.80
2018-03-06T03:42:45.459Z,36.20
2018-03-06T03:43:45.477Z,34.70
2018-03-06T03:44:45.496Z,35.10
2018-03-06T03:45:45.511Z,37.20
2018-03-06T03:46:45.527Z,39.40
2018-03-06T03:47:45.547Z,37.40
2018-03-06T03:48:45.567Z,37.80
2018-03-06T03:49:45.582Z,39.60
2018-03-06T03:50:45.600Z,40.20
2018-03-06T03:51:45.617Z,39.90
2018-03-06T03:52:45.634Z,41.00
2018-03-06T03:53:45.646Z,39.10
2018-03-06T03:54:45.667Z,40.50
2018-03-06T03:55:45.685Z,40.40
2018-03-06T03:56:45.705Z,37.90
2018-03-06T03:57:45.719Z,39.20
2018-03-06T03:58:45.739Z,40.20
2018-03-06T03:59:46.001Z,40.40
2018-03-06T04:00:45.766Z,41.50
2018-03-06T04:01:45.785Z,42.30
2018-03-06T04:02:45.799Z,41.60
2018-03-06T04:03:45.823Z,40.10
2018-03-06T04:04:45.835Z,41.60
2018-03-06T04:05:45.859Z,41.50
2018-03-06T04:06:45.870Z,39.20
2018-03-06T04:07:45.891Z,38.80
2018-03-06T04:08:45.907Z,37.80
2018-03-06T04:09:45.922Z,39.30
2018-03-06T04:10:45.936Z,38.30
2018-03-06T04:11:45.955Z,41.10
2018-03-06T04:12:45.974Z,40.90
2018-03-06T04:13:45.999Z,41.70
2018-03-06T04:14:46.261Z,42.30
2018-03-06T04:15:46.025Z,40.00
2018-03-06T04:16:46.040Z,43.00
2018-03-06T04:17:46.056Z,39.50
2018-03-06T04:18:46.074Z,39.50
2018-03-06T04:19:46.090Z,45.10
2018-03-06T04:20:46.115Z,42.00
2018-03-06T04:21:46.128Z,45.20
2018-03-06T04:22:46.146Z,41.30
2018-03-06T04:23:46.163Z,41.50
2018-03-06T04:24:46.174Z,39.60
2018-03-06T04:25:46.194Z,44.20
2018-03-06T04:26:46.217Z,43.70
2018-03-06T04:27:46.233Z,42.20
2018-03-06T04:28:46.248Z,43.20
2018-03-06T04:29:46.269Z,46.50
2018-03-06T04:30:46.283Z,43.70
2018-03-06T04:31:46.295Z,44.90
2018-03-06T04:32:46.314Z,45.00
2018-03-06T04:33:46.328Z,47.30
2018-03-06T04:34:46.353Z,43.60
2018-03-06T04:35:46.368Z,44.60
2018-03-06T04:36:46.378Z,48.60
2018-03-06T04:37:46.404Z,46.70
2018-03-06T04:38:46.418Z,47.70
2018-03-06T04:39:46.431Z,46.30
2018-03-06T04:40:46.448Z,45.10
2018-03-06T04:41:46.465Z,46.70
2018-03-06T04:42:46.486Z,46.90
2018-03-06T04:43:46.500Z,48.40
2018-03-06T04:44:46.523Z,48.00
2018-03-06T04:45:46.538Z,47.40
2018-03-06T04:46:46.552Z,48.20
2018-03-06T04:47:46.572Z,47.00
2018-03-06T04:48:46.588Z,47.60
2018-03-06T04:49:46.606Z,47.30
2018-03-06T04:50:46.618Z,48.30
2018-03-06T04:51:46.634Z,46.30
2018-03-06T04:52:46.657Z,47.30
2018-03-06T04:53:46.671Z,48.50
2018-03-06T04:54:46.689Z,51.20
2018-03-06T04:55:46.702Z,47.10
2018-03-06T04:56:46.716Z,49.60
2018-03-06T04:57:46.743Z,50.30
2018-03-06T04:58:46.752Z,51.70
2018-03-06T04:59:46.768Z,49.50
2018-03-06T05:00:46.787Z,49.00
2018-03-06T05:01:46.806Z,51.40
2018-03-06T05:02:46.824Z,49.00
2018-03-06T05:03:46.837Z,52.00
2018-03-06T05:04:46.854Z,52.10
2018-03-06T05:05:46.878Z,52.30
2018-03-06T05:06:46.887Z,50.60
2018-03-06T05:07:46.908Z,51.30
2018-03-06T05:08:46.922Z,52.30
2018-03-06T05:09:46.941Z,48.10
2018-03-06T05:10:46.953Z,50.40
2018-03-06T05:11:46.973Z,51.10
2018-03-06T05:12:46.986Z,51.50
2018-03-06T05:13:47.009Z,53.30
2018-03-06T05:14:47.021Z,53.10
2018-03-06T05:15:47.037Z,55.20
2018-03-06T05:16:47.056Z,52.50
2018-03-06T05:17:47.072Z,52.80
2018-03-06T05:18:47.094Z,52.20
2018-03-06T05:19:47.121Z,52.70
2018-03-06T05:20:47.127Z,54.50
2018-03-06T05:21:47.143Z,52.20
2018-03-06T05:22:47.157Z,53.50
2018-03-06T05:23:47.174Z,54.40
2018-03-06T05:24:47.191Z,55.10
2018-03-06T05:25:47.210Z,55.60
2018-03-06T05:26:47.249Z,53.50
2018-03-06T05:27:47.243Z,52.70
2018-03-06T05:28:47.256Z,54.40
2018-03-06T05:29:47.276Z,56.40
2018-03-06T05:30:47.296Z,55.70
2018-03-06T05:31:47.306Z,56.00
2018-03-06T05:32:47.322Z,56.20
2018-03-06T05:33:47.344Z,54.10
2018-03-06T05:34:47.357Z,55.20
2018-03-06T05:35:47.377Z,54.30
2018-03-06T05:36:47.387Z,53.50
2018-03-06T05:37:47.410Z,56.80
2018-03-06T05:38:47.426Z,56.40
2018-03-06T05:39:47.445Z,56.20
2018-03-06T05:40:47.460Z,54.70
2018-03-06T05:41:47.475Z,54.50
2018-03-06T05:42:47.495Z,54.30
2018-03-06T05:43:47.513Z,56.00
2018-03-06T05:44:47.532Z,58.20
2018-03-06T05:45:47.546Z,56.60
2018-03-06T05:46:47.562Z,58.00
2018-03-06T05:47:47.574Z,57.60
2018-03-06T05:48:47.591Z,59.50
2018-03-06T05:49:47.610Z,57.20
2018-03-06T05:50:47.627Z,56.70
2018-03-06T05:51:47.741Z,56.90
2018-03-06T05:52:47.660Z,58.10
2018-03-06T05:53:47.675Z,57.80
2018-03-06T05:54:47.694Z,58.00
2018-03-06T05:55:47.710Z,58.50
2018-03-06T05:56:47.724Z,56.70
2018-03-06T05:57:47.743Z,59.10
2018-03-06T05:58:47.760Z,58.40
2018-03-06T05:59:47.775Z,61.10
2018-03-06T06:00:47.791Z,59.00
2018-03-06T06:01:48.065Z,58.50
2018-03-06T06:02:47.829Z,62.80
2018-03-06T06:03:47.840Z,61.90
2018-03-06T06:04:47.856Z,61.20
2018-03-06T06:05:47.874Z,59.70
2018-03-06T06:06:47.887Z,60.80
2018-03-06T06:07:47.916Z,61.70
2018-03-06T06:08:47.924Z,62.30
2018-03-06T06:09:47.942Z,60.60
2018-03-06T06:10:47.958Z,59.00
2018-03-06T06:11:48.222Z,61.80
2018-03-06T06:12:47.994Z,61.00
2018-03-06T06:13:48.009Z,63.80
2018-03-06T06:14:48.023Z,62.40
2018-03-06T06:15:48.044Z,64.30
2018-03-06T06:16:48.063Z,64.70
2018-03-06T06:17:48.076Z,64.70
2018-03-06T06:18:48.088Z,64.10
2018-03-06T06:19:48.108Z,66.50
2018-03-06T06:20:48.122Z,65.40
2018-03-06T06:21:48.146Z,59.90
2018-03-06T06:22:48.158Z,63.30
2018-03-06T06:23:48.172Z,61.90
2018-03-06T06:24:48.188Z,67.20
2018-03-06T06:25:48.206Z,61.20
2018-03-06T06:26:48.230Z,61.00
2018-03-06T06:27:48.237Z,63.50
2018-03-06T06:28:48.260Z,60.20
2018-03-06T06:29:48.276Z,63.40
2018-03-06T06:30:48.288Z,63.20
2018-03-06T06:31:48.308Z,62.60
2018-03-06T06:32:48.326Z,60.30
2018-03-06T06:33:48.337Z,65.40
2018-03-06T06:34:48.356Z,64.70
2018-03-06T06:35:48.377Z,64.10
2018-03-06T06:36:48.391Z,66.30
2018-03-06T06:37:48.406Z,65.00
2018-03-06T06:38:48.426Z,65.00
2018-03-06T06:39:48.442Z,66.90
2018-03-06T06:40:48.457Z,61.90
2018-03-06T06:41:48.476Z,63.40
2018-03-06T06:42:48.491Z,64.90
2018-03-06T06:43:48.508Z,61.10
2018-03-06T06:44:48.526Z,61.60
2018-03-06T06:45:48.541Z,62.90
2018-03-06T06:46:48.571Z,61.50
2018-03-06T06:47:48.570Z,60.90
2018-03-06T06:48:48.593Z,62.50
2018-03-06T06:49:48.611Z,64.50
2018-03-06T06:50:48.625Z,64.30
2018-03-06T06:51:48.640Z,63.60
2018-03-06T06:52:48.656Z,61.80
2018-03-06T06:53:48.922Z,62.50
2018-03-06T06:54:48.686Z,61.20
2018-03-06T06:55:48.707Z,61.00
2018-03-06T06:56:48.729Z,61.30
2018-03-06T06:57:48.746Z,61.70
2018-03-06T06:58:48.762Z,62.50
2018-03-06T06:59:48.780Z,62.10
2018-03-06T07:00:48.791Z,61.00
2018-03-06T07:01:48.811Z,59.70
2018-03-06T07:02:48.825Z,61.30
2018-03-06T07:03:48.844Z,60.30
2018-03-06T07:04:48.863Z,61.10
2018-03-06T07:05:48.878Z,60.40
2018-03-06T07:06:48.894Z,59.70
2018-03-06T07:07:48.920Z,60.50
2018-03-06T07:08:48.929Z,57.60
2018-03-06T07:09:48.945Z,61.80
2018-03-06T07:10:48.963Z,58.40
2018-03-06T07:11:48.974Z,62.20
2018-03-06T07:12:48.997Z,61.60
2018-03-06T07:13:49.014Z,62.10
2018-03-06T07:14:49.034Z,62.70
2018-03-06T07:15:49.066Z,61.20
2018-03-06T07:16:49.060Z,58.80
2018-03-06T07:17:49.081Z,58.90
2018-03-06T07:18:49.098Z,59.60
2018-03-06T07:19:49.116Z,57.20
2018-03-06T07:20:49.129Z,59.20
2018-03-06T07:21:49.144Z,61.00
2018-03-06T07:22:49.159Z,59.70
2018-03-06T07:23:49.182Z,59.00
2018-03-06T07:24:49.202Z,59.30
2018-03-06T07:25:49.214Z,59.70
2018-03-06T07:26:49.230Z,57.40
2018-03-06T07:27:49.250Z,58.40
2018-03-06T07:28:49.271Z,58.30
2018-03-06T07:29:49.288Z,58.00
2018-03-06T07:30:49.298Z,57.60
2018-03-06T07:31:49.316Z,58.00
2018-03-06T07:32:49.335Z,57.10
2018-03-06T07:33:49.356Z,58.50
2018-03-06T07:34:49.368Z,57.50
2018-03-06T07:35:49.384Z,56.10
2018-03-06T07:36:49.398Z,59.20
2018-03-06T07:37:49.417Z,57.60
2018-03-06T07:38:49.438Z,56.80
2018-03-06T07:39:49.456Z,56.70
2018-03-06T07:40:49.472Z,56.80
2018-03-06T07:41:49.512Z,58.00
2018-03-06T07:42:49.507Z,57.70
2018-03-06T07:43:49.523Z,58.00
2018-03-06T07:44:49.537Z,58.20
2018-03-06T07:45:49.553Z,56.30
2018-03-06T07:46:49.574Z,56.10
2018-03-06T07:47:49.590Z,56.40
2018-03-06T07:48:49.607Z,56.00
2018-03-06T07:49:49.627Z,57.40
2018-03-06T07:50:49.645Z,56.60
2018-03-06T07:51:49.658Z,55.80
2018-03-06T07:52:49.680Z,56.20
2018-03-06T07:53:49.693Z,54.90
2018-03-06T07:54:49.707Z,54.70
2018-03-06T07:55:49.728Z,56.20
2018-03-06T07:56:49.747Z,56.40
2018-03-06T07:57:49.761Z,54.90
2018-03-06T07:58:49.779Z,52.70
2018-03-06T07:59:49.798Z,54.90
2018-03-06T08:00:49.818Z,55.30
2018-03-06T08:01:49.832Z,55.90
2018-03-06T08:02:49.866Z,56.40
2018-03-06T08:03:49.875Z,55.00
2018-03-06T08:04:49.885Z,54.20
2018-03-06T08:05:49.902Z,103.00
2018-03-06T08:06:50.017Z,57.00
2018-03-06T08:07:49.939Z,53.50
2018-03-06T08:08:49.951Z,54.90
2018-03-06T08:09:49.975Z,53.50
2018-03-06T08:10:49.996Z,55.20
2018-03-06T08:11:50.256Z,53.80
2018-03-06T08:12:50.026Z,52.90
2018-03-06T08:13:50.046Z,52.80
2018-03-06T08:14:50.067Z,54.70
2018-03-06T08:15:50.077Z,53.60
2018-03-06T08:16:50.092Z,55.00
2018-03-06T08:17:50.116Z,53.00
2018-03-06T08:18:50.133Z,53.80
2018-03-06T08:19:50.151Z,53.40
2018-03-06T08:20:50.166Z,54.00
2018-03-06T08:21:50.181Z,53.20
2018-03-06T08:22:50.200Z,52.10
2018-03-06T08:23:50.217Z,53.70
2018-03-06T08:24:50.236Z,52.80
2018-03-06T08:25:50.259Z,52.00
2018-03-06T08:26:50.270Z,53.00
2018-03-06T08:27:50.290Z,51.80
2018-03-06T08:28:50.313Z,51.60
2018-03-06T08:29:50.335Z,52.70
2018-03-06T08:30:50.340Z,51.30
2018-03-06T08:31:50.367Z,52.10
2018-03-06T08:32:50.391Z,52.50
2018-03-06T08:33:50.395Z,52.50
2018-03-06T08:34:50.414Z,51.50
2018-03-06T08:35:50.438Z,52.60
2018-03-06T08:36:50.454Z,52.50
2018-03-06T08:37:50.470Z,53.80
2018-03-06T08:38:50.485Z,52.90
2018-03-06T08:39:50.505Z,51.10
2018-03-06T08:40:50.520Z,51.80
2018-03-06T08:41:50.539Z,52.10
2018-03-06T08:42:50.559Z,51.60
2018-03-06T08:43:50.575Z,52.20
2018-03-06T08:44:50.602Z,52.20
2018-03-06T08:45:50.609Z,51.20
2018-03-06T08:46:50.629Z,52.00
2018-03-06T08:47:50.650Z,50.90
2018-03-06T08:48:50.669Z,50.60
2018-03-06T08:49:50.689Z,51.30
2018-03-06T08:50:50.700Z,52.00
2018-03-06T08:51:50.972Z,50.90
2018-03-06T08:52:50.743Z,51.10
2018-03-06T08:53:50.762Z,52.00
2018-03-06T08:54:50.775Z,51.80
2018-03-06T08:55:50.790Z,51.70
2018-03-06T08:56:50.810Z,53.10
2018-03-06T08:57:50.829Z,50.60
2018-03-06T08:58:50.853Z,51.90
2018-03-06T08:59:50.869Z,54.80
2018-03-06T09:00:50.885Z,53.40
2018-03-06T09:01:50.904Z,52.90
2018-03-06T09:02:50.920Z,53.50
2018-03-06T09:03:50.944Z,52.50
2018-03-06T09:04:50.959Z,53.50
2018-03-06T09:05:50.982Z,53.70
2018-03-06T09:06:51.002Z,53.40
2018-03-06T09:07:51.016Z,52.50
2018-03-06T09:08:51.030Z,53.80
2018-03-06T09:09:51.048Z,52.50
2018-03-06T09:10:51.072Z,52.80
2018-03-06T09:11:51.094Z,52.50
2018-03-06T09:12:51.107Z,53.50
2018-03-06T09:13:51.227Z,53.10
2018-03-06T09:14:51.146Z,50.60
2018-03-06T09:15:51.159Z,53.10
2018-03-06T09:16:51.181Z,52.70
2018-03-06T09:17:51.195Z,52.40
2018-03-06T09:18:51.219Z,51.20
2018-03-06T09:19:51.237Z,62.30
2018-03-06T09:20:51.257Z,55.40
2018-03-06T09:21:51.267Z,53.70
2018-03-06T09:22:51.290Z,53.60
2018-03-06T09:23:51.310Z,52.40
2018-03-06T09:24:51.324Z,51.10
2018-03-06T09:25:51.346Z,51.80
2018-03-06T09:26:51.358Z,52.00
2018-03-06T09:27:51.386Z,51.60
2018-03-06T09:28:51.402Z,51.60
2018-03-06T09:29:51.420Z,52.00
2018-03-06T09:30:51.466Z,51.20
2018-03-06T09:31:51.456Z,51.90
2018-03-06T09:32:51.494Z,52.60
2018-03-06T09:33:51.500Z,52.70
2018-03-06T09:34:51.511Z,53.10
2018-03-06T09:35:51.531Z,50.90
2018-03-06T09:36:51.553Z,50.70
2018-03-06T09:37:51.572Z,51.10
2018-03-06T09:38:51.591Z,50.90
2018-03-06T09:39:51.604Z,51.50
2018-03-06T09:40:51.626Z,50.10
2018-03-06T09:41:51.646Z,49.10
2018-03-06T09:42:51.667Z,49.50
2018-03-06T09:43:51.680Z,50.50
2018-03-06T09:44:51.702Z,51.30
2018-03-06T09:45:51.715Z,51.70
2018-03-06T09:46:51.737Z,50.00
2018-03-06T09:47:51.756Z,48.50
2018-03-06T09:48:51.776Z,50.50
2018-03-06T09:49:51.796Z,49.60
2018-03-06T09:50:51.810Z,49.10
2018-03-06T09:51:51.835Z,50.30
2018-03-06T09:52:51.863Z,49.20
2018-03-06T09:53:51.871Z,48.90
2018-03-06T09:54:51.896Z,49.80
2018-03-06T09:55:51.915Z,49.40
2018-03-06T09:56:51.929Z,49.20
2018-03-06T09:57:51.950Z,49.50
2018-03-06T09:58:51.968Z,47.60
2018-03-06T09:59:51.983Z,50.00
2018-03-06T10:00:52.009Z,49.60
2018-03-06T10:01:52.024Z,49.70
2018-03-06T10:02:52.047Z,50.20
2018-03-06T10:04:52.077Z,49.80
2018-03-06T10:05:52.106Z,50.60
2018-03-06T10:06:52.217Z,50.70
2018-03-06T10:07:52.136Z,50.80
2018-03-06T10:08:52.153Z,50.10
2018-03-06T10:09:52.188Z,50.90
2018-03-06T10:10:52.197Z,50.90
2018-03-06T10:11:52.465Z,50.90
2018-03-06T10:12:52.238Z,50.40
2018-03-06T10:13:52.257Z,51.10
2018-03-06T10:14:52.270Z,51.00
2018-03-06T10:15:52.292Z,49.50
2018-03-06T10:16:52.316Z,51.10
2018-03-06T10:17:52.339Z,50.10
2018-03-06T10:18:52.350Z,52.00
2018-03-06T10:19:52.373Z,51.20
2018-03-06T10:20:52.393Z,52.70
2018-03-06T10:21:52.660Z,52.00
2018-03-06T10:22:52.430Z,52.40
2018-03-06T10:23:52.489Z,52.50
2018-03-06T10:24:52.465Z,52.00
2018-03-06T10:25:52.485Z,52.80
2018-03-06T10:26:52.509Z,51.50
2018-03-06T10:27:52.527Z,50.40
2018-03-06T10:28:52.545Z,52.60
2018-03-06T10:29:52.564Z,51.90
2018-03-06T10:30:52.583Z,50.90
2018-03-06T10:31:52.605Z,49.40
2018-03-06T10:32:52.625Z,51.70
2018-03-06T10:33:52.643Z,50.50
2018-03-06T10:34:52.664Z,50.50
2018-03-06T10:35:52.684Z,49.20
2018-03-06T10:36:52.719Z,50.40
2018-03-06T10:37:52.725Z,50.10
2018-03-06T10:38:52.747Z,51.80
2018-03-06T10:39:52.767Z,50.90
2018-03-06T10:40:52.784Z,47.10
2018-03-06T10:41:52.799Z,48.70
2018-03-06T10:42:52.817Z,50.70
2018-03-06T10:43:52.893Z,50.20
2018-03-06T10:44:52.858Z,49.90
2018-03-06T10:45:52.883Z,49.80
2018-03-06T10:46:52.910Z,47.50
2018-03-06T10:47:52.919Z,47.70
2018-03-06T10:48:52.952Z,48.70
2018-03-06T10:49:52.958Z,47.40
2018-03-06T10:50:52.982Z,48.80
2018-03-06T10:51:53.006Z,47.80
2018-03-06T10:52:53.023Z,47.80
2018-03-06T10:53:53.039Z,48.80
2018-03-06T10:54:53.065Z,48.70
2018-03-06T10:55:53.084Z,48.30
2018-03-06T10:56:53.111Z,47.70
2018-03-06T10:57:53.122Z,48.20
2018-03-06T10:58:53.143Z,48.10
2018-03-06T10:59:53.167Z,49.20
2018-03-06T11:00:53.191Z,48.00
2018-03-06T11:01:53.217Z,47.70
2018-03-06T11:02:53.230Z,49.10
2018-03-06T11:03:53.253Z,48.70
2018-03-06T11:04:53.281Z,47.50
2018-03-06T11:05:53.311Z,46.90
2018-03-06T11:06:53.313Z,45.80
2018-03-06T11:07:53.342Z,46.00
2018-03-06T11:08:53.358Z,48.20
2018-03-06T11:09:53.382Z,47.90
2018-03-06T11:10:53.407Z,46.80
2018-03-06T11:11:53.425Z,47.20
2018-03-06T11:12:53.454Z,47.90
2018-03-06T11:13:53.472Z,47.50
2018-03-06T11:14:53.500Z,46.40
2018-03-06T11:15:53.525Z,45.70
2018-03-06T11:16:53.541Z,45.90
2018-03-06T11:17:53.572Z,47.40
2018-03-06T11:18:53.604Z,45.80
2018-03-06T11:19:53.618Z,46.70
2018-03-06T11:20:53.639Z,48.10
2018-03-06T11:21:53.670Z,47.90
2018-03-06T11:22:53.695Z,46.90
2018-03-06T11:23:53.719Z,47.20
2018-03-06T11:24:53.743Z,46.30
2018-03-06T11:25:53.770Z,47.10
2018-03-06T11:26:53.797Z,45.90
2018-03-06T11:27:53.811Z,45.70
2018-03-06T11:28:53.844Z,47.20
2018-03-06T11:29:53.902Z,45.60
2018-03-06T11:30:53.891Z,46.90
2018-03-06T11:31:53.919Z,46.30
2018-03-06T11:32:53.946Z,45.60
2018-03-06T11:33:53.983Z,45.70
2018-03-06T11:34:54.002Z,47.70
2018-03-06T11:35:54.030Z,46.80
2018-03-06T11:36:54.056Z,46.60
2018-03-06T11:37:54.080Z,45.80
2018-03-06T11:38:54.114Z,46.80
2018-03-06T11:39:54.138Z,47.40
2018-03-06T11:40:54.169Z,47.00
2018-03-06T11:41:54.198Z,47.40
2018-03-06T11:42:54.222Z,46.70
2018-03-06T11:43:54.261Z,46.60
2018-03-06T11:44:54.285Z,44.70
2018-03-06T11:45:54.310Z,45.00
2018-03-06T11:46:54.347Z,46.30
2018-03-06T11:47:54.366Z,45.10
2018-03-06T11:48:54.395Z,46.60
2018-03-06T11:49:54.423Z,46.60
2018-03-06T11:50:54.455Z,45.30
2018-03-06T11:51:54.482Z,47.00
2018-03-06T11:52:54.515Z,46.20
2018-03-06T11:53:54.543Z,46.70
2018-03-06T11:54:54.576Z,46.30
2018-03-06T11:55:54.612Z,46.30
2018-03-06T11:56:54.640Z,47.00
2018-03-06T11:57:54.664Z,45.90
2018-03-06T11:58:54.701Z,45.00
2018-03-06T11:59:54.728Z,44.40
2018-03-06T12:00:54.757Z,44.40
2018-03-06T12:01:54.834Z,43.00
2018-03-06T12:02:54.815Z,46.00
2018-03-06T12:03:54.882Z,44.00
2018-03-06T12:04:54.873Z,46.30
2018-03-06T12:05:54.913Z,44.90
2018-03-06T12:06:54.944Z,44.00
2018-03-06T12:07:54.970Z,44.50
2018-03-06T12:08:55.004Z,43.00
2018-03-06T12:09:55.033Z,42.50
2018-03-06T12:10:55.065Z,44.80
2018-03-06T12:11:55.101Z,42.80
2018-03-06T12:12:55.129Z,43.40
2018-03-06T12:13:55.161Z,42.00
2018-03-06T12:14:55.193Z,42.60
2018-03-06T12:15:55.230Z,43.10
2018-03-06T12:16:55.262Z,42.10
2018-03-06T12:17:55.298Z,41.80
2018-03-06T12:18:55.332Z,41.60
2018-03-06T12:19:55.362Z,41.60
2018-03-06T12:20:55.398Z,42.20
2018-03-06T12:21:55.421Z,40.20
2018-03-06T12:22:55.456Z,40.60
2018-03-06T12:23:55.494Z,41.10
2018-03-06T12:24:55.525Z,39.60
2018-03-06T12:25:55.553Z,40.30
2018-03-06T12:26:55.585Z,40.10
2018-03-06T12:27:55.618Z,39.60
2018-03-06T12:28:55.667Z,40.10
2018-03-06T12:29:55.683Z,39.80
2018-03-06T12:30:55.721Z,40.80
2018-03-06T12:31:55.755Z,40.30
2018-03-06T12:32:55.793Z,41.40
2018-03-06T12:33:55.818Z,40.40
2018-03-06T12:34:55.852Z,40.00
2018-03-06T12:35:55.885Z,40.40
2018-03-06T12:36:55.917Z,40.60
2018-03-06T12:37:55.951Z,40.30
2018-03-06T12:38:55.977Z,41.10
2018-03-06T12:39:56.018Z,39.80
2018-03-06T12:40:56.045Z,40.40
2018-03-06T12:41:56.081Z,39.50
2018-03-06T12:42:56.154Z,39.10
2018-03-06T12:43:56.146Z,40.10
2018-03-06T12:44:56.183Z,43.00
2018-03-06T12:45:56.221Z,39.50
2018-03-06T12:46:56.250Z,39.20
2018-03-06T12:47:56.282Z,39.60
2018-03-06T12:48:56.316Z,38.70
2018-03-06T12:49:56.346Z,38.70
2018-03-06T12:50:56.383Z,38.80
2018-03-06T12:51:56.417Z,39.20
2018-03-06T12:52:56.442Z,39.00
2018-03-06T12:53:56.482Z,38.60